Flight Track Log - Related Links

Times and Time Zones

All times are in EDT time to prevent confusion due to time zone crossing. See the N500HY flight status page for this flight to view local times or setup timezone preferences in your user account.

Time Position Orientation Groundspeed Altitude Reporting Facility
EDT Latitude Longitude Course Direction KTS MPH feet Rate Location/Type
Wed 07:42:31 AM 35.5531 -77.4608 302° West 421 484 6,400  Level Washington Center
Wed 07:43:31 AM 35.5853 -77.5408 296° West 319 367 9,600 3,000 Climbing Washington Center
Wed 07:44:29 AM 35.6214 -77.6261 298° West 291 335 12,300 2,550 Climbing Washington Center
Wed 07:45:31 AM 35.6575 -77.7139 297° West 291 335 14,700 2,450 Climbing Washington Center
Wed 07:46:29 AM 35.6953 -77.8094 296° West 297 342 17,200 2,118 Climbing Washington Center
Wed 07:47:00 AM 35.8839 -78.0179 302° West  Level FlightAware
Wed 07:47:30 AM 35.7353 -77.9000 299° West 302 348 18,900  Level Washington Center
Wed 07:48:30 AM 35.7753 -77.9933 298° West 307 353 21,000 1,750 Climbing Washington Center
Wed 07:49:30 AM 35.8150 -78.0919 296° West 307 353 22,400 1,537 Climbing Washington Center
Wed 07:50:31 AM 35.8544 -78.1906 296° West 307 353 24,100 1,866 Climbing Washington Center
Wed 07:51:29 AM 35.8942 -78.2867 297° West 307 353 26,100 1,866 Climbing Washington Center
Wed 07:52:30 AM 35.9358 -78.3831 298° West 307 353 27,800 1,587 Climbing Washington Center
Wed 07:53:30 AM 35.9772 -78.4847 297° West 314 361 29,300 1,438 Climbing Washington Center
Wed 07:54:31 AM 36.0144 -78.5811 296° West 319 367 30,700 1,240 Climbing Washington Center
Wed 07:55:31 AM 36.0578 -78.6803 298° West 319 367 31,800 1,050 Climbing Washington Center
Wed 07:56:31 AM 36.0969 -78.7847 295° West 324 373 32,800 850 Climbing Washington Center
Wed 07:57:31 AM 36.1400 -78.8867 298° West 324 373 33,500 600 Climbing Washington Center
Wed 07:58:31 AM 36.1828 -78.9942 296° West 335 386 34,000 559 Climbing Washington Center
Wed 07:59:29 AM 36.2256 -79.1014 296° West 341 392 34,600 712 Climbing Washington Center
Wed 08:00:29 AM 36.2703 -79.2142 296° West 351 404 35,400 595 Climbing Washington Center
Wed 08:01:30 AM 36.3128 -79.3244 296° West 351 404 35,800 295 Climbing Washington Center
Wed 08:02:31 AM 36.3592 -79.4375 297° West 361 415 36,000 99 Climbing Washington Center
Wed 08:03:31 AM 36.4056 -79.5561 296° West 374 430 36,000  Level Washington Center
Wed 08:04:29 AM 36.4536 -79.6797 296° West 387 445 36,000  Level Washington Center
Wed 08:05:29 AM 36.5011 -79.8064 295° West 392 451 36,000 248 Level Washington Center
Wed 08:06:30 AM 36.5531 -79.9333 297° West 403 464 36,500 1,140 Climbing Washington Center
Wed 08:07:09 AM 36.5869 -80.0236 295° West 406 467 37,900 909 Climbing Atlanta Center
Wed 08:08:09 AM 36.6325 -80.1428 296° West 384 442 38,000 50 Climbing Atlanta Center
Wed 08:09:09 AM 36.6733 -80.2497 295° West 378 435 38,000  Level Atlanta Center
Wed 08:10:09 AM 36.7208 -80.3692 296° West 378 435 38,000  Level Atlanta Center
Wed 08:11:09 AM 36.7683 -80.4964 295° West 389 448 38,000  Level Atlanta Center
Wed 08:12:09 AM 36.8156 -80.6214 295° West 394 453 38,000  Level Atlanta Center
Wed 08:13:09 AM 36.8628 -80.7464 295° West 394 453 38,000  Level Atlanta Center
Wed 08:14:09 AM 36.9186 -80.8894 296° West 400 460 38,000  Level Atlanta Center
Wed 08:15:09 AM 36.9658 -81.0175 295° West 405 466 38,000  Level Atlanta Center
Wed 08:16:09 AM 37.0167 -81.1456 296° West 410 472 38,000  Level Atlanta Center
Wed 08:17:45 AM 37.0992 -81.3547 296° West 417 480 38,000  Level Indianapolis Center
Wed 08:18:46 AM 37.1483 -81.4861 295° West 416 479 38,000  Level Indianapolis Center
Wed 08:19:48 AM 37.1961 -81.6178 295° West 417 480 38,000  Level Indianapolis Center
Wed 08:20:49 AM 37.2272 -81.7569 286° West 417 480 38,000  Level Indianapolis Center
Wed 08:21:51 AM 37.2525 -81.8992 283° West 420 483 38,000  Level Indianapolis Center
Wed 08:22:52 AM 37.2806 -82.0397 284° West 416 479 38,000  Level Indianapolis Center
Wed 08:23:54 AM 37.3083 -82.1819 284° West 420 483 38,000  Level Indianapolis Center
Wed 08:24:55 AM 37.3458 -82.3456 286° West 418 481 38,000  Level Indianapolis Center
Wed 08:25:57 AM 37.3983 -82.4758 297° West 417 480 38,000  Level Indianapolis Center
Wed 08:26:58 AM 37.4497 -82.6064 296° West 419 482 38,000  Level Indianapolis Center
Wed 08:28:00 AM 37.5014 -82.7364 297° West 417 480 38,000  Level Indianapolis Center
Wed 08:29:01 AM 37.5519 -82.8664 296° West 415 478 38,000  Level Indianapolis Center
Wed 08:30:03 AM 37.6031 -82.9964 296° West 415 478 38,000  Level Indianapolis Center
Wed 08:31:05 AM 37.6619 -83.1497 296° West 417 480 38,000  Level Indianapolis Center
Wed 08:32:06 AM 37.7133 -83.2811 296° West 418 481 38,000  Level Indianapolis Center
Wed 08:33:08 AM 37.7644 -83.4139 296° West 420 483 38,000  Level Indianapolis Center
Wed 08:34:09 AM 37.8161 -83.5467 296° West 421 484 38,000  Level Indianapolis Center
Wed 08:35:11 AM 37.8658 -83.6808 295° West 423 487 38,000  Level Indianapolis Center
Wed 08:36:13 AM 37.9178 -83.8156 296° West 425 489 38,000  Level Indianapolis Center
Wed 08:37:14 AM 37.9692 -83.9489 296° West 423 487 38,000  Level Indianapolis Center
Wed 08:38:16 AM 38.0289 -84.1078 296° West 424 488 38,000 -581 Level Indianapolis Center
Wed 08:39:18 AM 38.0783 -84.2431 295° West 423 487 36,800 -1,707 Descending Indianapolis Center
Wed 08:40:19 AM 38.1286 -84.3786 295° West 424 488 34,500 -2,146 Descending Indianapolis Center
Wed 08:41:21 AM 38.1764 -84.5067 295° West 402 463 32,400 -2,081 Descending Indianapolis Center
Wed 08:42:23 AM 38.2250 -84.6356 296° West 405 466 30,200 -2,098 Descending Indianapolis Center
Wed 08:43:24 AM 38.2733 -84.7689 295° West 414 476 28,100 -1,073 Descending Indianapolis Center
Wed 08:44:26 AM 38.3239 -84.9047 295° West 422 486 28,000 -48 Descending Indianapolis Center
Wed 08:45:28 AM 38.3828 -85.0675 295° West 432 497 28,000  Level Indianapolis Center
Wed 08:46:29 AM 38.4347 -85.2072 295° West 435 501 28,000  Level Indianapolis Center
Wed 08:47:31 AM 38.4839 -85.3464 294° West 436 502 28,000 -871 Level Indianapolis Center
Wed 08:48:33 AM 38.5369 -85.4867 296° West 432 497 26,200 -1,902 Descending Indianapolis Center
Wed 08:49:34 AM 38.6122 -85.6000 310° West 427 491 24,100 -2,195 Descending Indianapolis Center
Wed 08:50:36 AM 38.7264 -85.6600 338° Northwest 417 480 21,700 -2,226 Descending Indianapolis Center
Wed 08:51:38 AM 38.8353 -85.6786 352° North 399 459 19,500 -2,081 Descending Indianapolis Center
Wed 08:52:40 AM 38.9392 -85.6972 352° North 383 441 17,400 -2,098 Descending Indianapolis Center
Wed 08:53:41 AM 39.0406 -85.7161 352° North 371 427 15,200 -1,659 Descending Indianapolis Center
Wed 08:54:43 AM 39.1394 -85.7339 352° North 362 417 14,000 -1,355 Descending Indianapolis Center
Wed 08:55:45 AM 39.2575 -85.7547 352° North 359 413 12,400 -1,512 Descending Indianapolis Center
Wed 08:56:46 AM 39.3425 -85.8042 336° Northwest 348 400 10,900 -1,171 Descending Indianapolis Center
Wed 08:57:48 AM 39.4064 -85.8778 318° Northwest 309 356 10,000 -823 Descending Indianapolis Center
Wed 08:58:50 AM 39.4589 -85.9394 318° Northwest 260 299 9,200 -1,452 Descending Indianapolis Center
Wed 08:59:52 AM 39.5075 -85.9972 317° Northwest 241 277 7,000 -2,129 Descending Indianapolis Center
Wed 09:00:54 AM 39.5600 -86.0572 319° Northwest 248 285 4,800 -1,902 Descending Indianapolis Center
Wed 09:01:55 AM 39.6150 -86.1358 312° West 248 285 3,100 -1,036 Descending Indianapolis Center
Wed 09:02:44 AM 39.6500 -86.1667 326° Northwest 162 186 2,900 -522 Descending Indianapolis TRACON
Wed 09:03:50 AM 39.6667 -86.2000 303° West 129 148 2,100 -714 Descending Indianapolis TRACON
Wed 09:04:50 AM 39.7000 -86.2500 311° West 131 151 1,400 -402 Descending Indianapolis TRACON
Wed 09:07:04 AM 39.7325 -86.2839 321° Northwest 62 71 800 -184 Descending Indianapolis Center
Wed 09:08:06 AM 39.7333 -86.2808 70° East 32 37 800  Level Indianapolis Center

Login

Don't have an account? Register now (free) for customized features, flight alerts, and more!